createdAt,value
2023-04-19T00:00:08.843Z,13.57
2023-04-19T00:02:36.439Z,12.50
2023-04-19T00:05:03.992Z,13.40
2023-04-19T00:07:31.067Z,12.70
2023-04-19T00:09:57.967Z,11.70
2023-04-19T00:12:24.998Z,13.13
2023-04-19T00:14:51.873Z,12.67
2023-04-19T00:17:19.442Z,12.43
2023-04-19T00:19:46.297Z,12.80
2023-04-19T00:22:13.563Z,11.53
2023-04-19T00:24:40.428Z,13.50
2023-04-19T00:27:07.306Z,12.80
2023-04-19T00:29:34.624Z,11.90
2023-04-19T00:32:02.075Z,12.10
2023-04-19T00:34:28.914Z,13.30
2023-04-19T00:36:57.217Z,12.10
2023-04-19T00:39:24.253Z,12.43
2023-04-19T00:41:51.127Z,12.33
2023-04-19T00:44:18.231Z,12.73
2023-04-19T00:46:45.642Z,12.10
2023-04-19T00:49:12.543Z,11.00
2023-04-19T00:51:39.956Z,12.40
2023-04-19T00:54:08.215Z,11.10
2023-04-19T00:56:35.914Z,12.43
2023-04-19T00:59:03.342Z,12.47
2023-04-19T01:01:30.504Z,11.97
2023-04-19T01:03:58.322Z,12.27
2023-04-19T01:06:27.955Z,12.83
2023-04-19T01:08:54.911Z,12.07
2023-04-19T01:11:23.641Z,13.13
2023-04-19T01:13:50.982Z,12.90
2023-04-19T01:16:18.704Z,11.97
2023-04-19T01:18:46.135Z,12.77
2023-04-19T01:21:13.208Z,11.77
2023-04-19T01:23:40.453Z,12.13
2023-04-19T01:26:07.331Z,12.37
2023-04-19T01:28:34.468Z,12.47
2023-04-19T01:31:01.531Z,13.40
2023-04-19T01:33:28.822Z,13.23
2023-04-19T01:35:55.925Z,12.40
2023-04-19T01:38:22.963Z,12.97
2023-04-19T01:40:49.861Z,11.80
2023-04-19T01:43:18.523Z,12.87
2023-04-19T01:45:45.944Z,11.90
2023-04-19T01:48:12.810Z,13.37
2023-04-19T01:50:39.692Z,12.33
2023-04-19T01:53:06.610Z,12.90
2023-04-19T01:55:33.448Z,12.67
2023-04-19T01:58:00.465Z,12.00
2023-04-19T02:00:27.359Z,11.77
2023-04-19T02:02:54.306Z,12.60
2023-04-19T02:05:21.331Z,12.80
2023-04-19T02:07:48.231Z,12.00
2023-04-19T02:10:15.129Z,12.67
2023-04-19T02:12:42.941Z,11.80
2023-04-19T02:15:10.572Z,11.97
2023-04-19T02:17:37.597Z,11.40
2023-04-19T02:20:05.941Z,11.93
2023-04-19T02:22:32.806Z,11.80
2023-04-19T02:24:59.730Z,10.53
2023-04-19T02:27:26.746Z,11.23
2023-04-19T02:29:53.692Z,11.47
2023-04-19T02:32:20.577Z,9.80
2023-04-19T02:34:47.491Z,10.47
2023-04-19T02:37:14.354Z,9.63
2023-04-19T02:39:42.682Z,10.17
2023-04-19T02:42:09.593Z,9.20
2023-04-19T02:44:36.445Z,9.50
2023-04-19T02:47:03.765Z,8.83
2023-04-19T02:49:36.577Z,8.20
2023-04-19T02:52:03.575Z,8.60
2023-04-19T02:54:30.414Z,8.97
2023-04-19T02:56:57.727Z,8.97
2023-04-19T02:59:24.600Z,8.27
2023-04-19T03:01:51.713Z,9.53
2023-04-19T03:04:18.908Z,8.70
2023-04-19T03:06:46.426Z,8.80
2023-04-19T03:09:13.648Z,7.97
2023-04-19T03:11:40.905Z,7.30
2023-04-19T03:14:07.762Z,8.70
2023-04-19T03:16:34.677Z,7.63
2023-04-19T03:19:01.576Z,7.90
2023-04-19T03:21:29.212Z,7.50
2023-04-19T03:23:56.649Z,8.37
2023-04-19T03:26:23.574Z,7.50
2023-04-19T03:28:50.980Z,8.20
2023-04-19T03:31:18.171Z,7.13
2023-04-19T03:33:45.287Z,7.37
2023-04-19T03:36:12.315Z,7.20
2023-04-19T03:38:39.665Z,7.87
2023-04-19T03:41:17.954Z,7.33
2023-04-19T03:43:44.797Z,7.20
2023-04-19T03:46:11.688Z,7.27
2023-04-19T03:48:38.589Z,6.57
2023-04-19T03:51:05.411Z,6.60
2023-04-19T03:53:32.284Z,6.97
2023-04-19T03:55:59.238Z,8.07
2023-04-19T03:58:26.140Z,7.97
2023-04-19T04:00:53.615Z,7.13
2023-04-19T04:03:20.617Z,7.23
2023-04-19T04:05:48.415Z,7.73
2023-04-19T04:08:15.503Z,6.80
2023-04-19T04:10:42.540Z,7.07
2023-04-19T04:13:09.496Z,6.50
2023-04-19T04:15:36.737Z,7.03
2023-04-19T04:18:03.698Z,7.10
2023-04-19T04:20:31.055Z,7.67
2023-04-19T04:22:58.539Z,8.53
2023-04-19T04:25:26.013Z,7.90
2023-04-19T04:27:52.911Z,7.40
2023-04-19T04:30:19.871Z,7.13
2023-04-19T04:32:47.598Z,7.73
2023-04-19T04:35:14.585Z,7.63
2023-04-19T04:37:41.517Z,8.00
2023-04-19T04:40:09.144Z,8.00
2023-04-19T04:42:38.010Z,7.60
2023-04-19T04:45:05.747Z,7.00
2023-04-19T04:47:34.517Z,7.50
2023-04-19T04:50:02.434Z,7.70
2023-04-19T04:52:30.051Z,7.10
2023-04-19T04:54:56.940Z,8.37
2023-04-19T04:57:23.787Z,6.87
2023-04-19T04:59:50.652Z,7.23
2023-04-19T05:02:17.534Z,8.40
2023-04-19T05:04:44.505Z,7.60
2023-04-19T05:07:11.673Z,7.77
2023-04-19T05:09:38.540Z,8.07
2023-04-19T05:12:05.750Z,7.27
2023-04-19T05:14:32.794Z,7.60
2023-04-19T05:16:59.684Z,8.60
2023-04-19T05:19:26.861Z,7.80
2023-04-19T05:21:53.811Z,7.97
2023-04-19T05:24:20.935Z,8.60
2023-04-19T05:26:47.775Z,7.90
2023-04-19T05:29:14.664Z,7.40
2023-04-19T05:31:41.840Z,8.27
2023-04-19T05:34:09.967Z,7.00
2023-04-19T05:36:36.814Z,8.50
2023-04-19T05:39:04.069Z,7.80
2023-04-19T05:41:30.928Z,7.10
2023-04-19T05:43:57.866Z,6.97
2023-04-19T05:46:24.725Z,6.73
2023-04-19T05:48:51.569Z,7.97
2023-04-19T05:51:19.002Z,6.60
2023-04-19T05:53:46.409Z,7.27
2023-04-19T05:56:13.754Z,6.80
2023-04-19T05:58:40.999Z,7.00
2023-04-19T06:01:07.932Z,7.03
2023-04-19T06:03:35.013Z,6.67
2023-04-19T06:06:02.231Z,7.20
2023-04-19T06:08:29.491Z,6.40
2023-04-19T06:11:02.067Z,6.40
2023-04-19T06:13:29.693Z,6.57
2023-04-19T06:15:56.698Z,6.67
2023-04-19T06:18:23.781Z,7.00
2023-04-19T06:20:51.077Z,6.17
2023-04-19T06:23:18.809Z,6.43
2023-04-19T06:25:46.265Z,6.40
2023-04-19T06:28:13.199Z,5.73
2023-04-19T06:30:40.155Z,6.00
2023-04-19T06:33:07.164Z,5.70
2023-04-19T06:35:34.071Z,5.67
2023-04-19T06:38:01.003Z,6.07
2023-04-19T06:40:29.557Z,5.67
2023-04-19T06:42:56.481Z,5.90
2023-04-19T06:45:23.564Z,4.70
2023-04-19T06:47:50.542Z,5.77
2023-04-19T06:50:17.526Z,5.17
2023-04-19T06:52:44.443Z,5.03
2023-04-19T06:55:11.716Z,5.33
2023-04-19T06:57:38.704Z,5.33
2023-04-19T07:05:22.479Z,5.10
2023-04-19T07:07:49.401Z,4.80
2023-04-19T07:10:16.330Z,5.30
2023-04-19T07:12:43.674Z,4.90
2023-04-19T07:15:11.070Z,4.57
2023-04-19T07:17:38.453Z,4.70
2023-04-19T07:20:06.604Z,4.67
2023-04-19T07:22:33.882Z,4.90
2023-04-19T07:25:00.789Z,4.33
2023-04-19T07:27:27.889Z,5.30
2023-04-19T07:29:54.802Z,4.40
2023-04-19T07:32:21.977Z,4.83
2023-04-19T07:34:48.876Z,4.70
2023-04-19T07:37:15.695Z,4.47
2023-04-19T07:39:42.986Z,5.10
2023-04-19T07:42:09.915Z,4.00
2023-04-19T07:44:37.328Z,4.70
2023-04-19T07:47:06.194Z,4.70
2023-04-19T07:49:34.344Z,4.37
2023-04-19T07:52:05.661Z,4.60
2023-04-19T07:54:33.047Z,4.37
2023-04-19T07:56:59.961Z,4.07
2023-04-19T07:59:26.926Z,4.30
2023-04-19T08:01:53.886Z,4.07
2023-04-19T08:04:23.078Z,4.10
2023-04-19T08:06:50.240Z,4.07
2023-04-19T08:09:17.567Z,4.00
2023-04-19T08:11:44.610Z,3.97
2023-04-19T08:14:22.262Z,3.93
2023-04-19T08:17:22.357Z,4.17
2023-04-19T08:19:44.782Z,3.80
2023-04-19T08:22:11.851Z,3.70
2023-04-19T08:24:38.716Z,4.27
2023-04-19T08:27:05.916Z,3.63
2023-04-19T08:29:33.784Z,4.03
2023-04-19T08:32:02.882Z,4.00
2023-04-19T08:34:29.895Z,3.70
2023-04-19T08:37:03.949Z,3.50
2023-04-19T08:39:35.480Z,4.00
2023-04-19T08:42:13.283Z,3.90
2023-04-19T08:45:06.375Z,3.20
2023-04-19T08:52:54.999Z,3.90
2023-04-19T08:55:27.785Z,4.27
2023-04-19T08:57:54.783Z,3.73
2023-04-19T09:00:21.915Z,3.50
2023-04-19T09:02:54.608Z,2.80
2023-04-19T09:05:22.496Z,2.83
2023-04-19T09:07:49.642Z,3.30
2023-04-19T09:10:18.705Z,2.53
2023-04-19T09:13:05.901Z,2.63
2023-04-19T09:15:41.577Z,2.77
2023-04-19T09:18:12.510Z,2.63
2023-04-19T09:20:46.830Z,2.50
2023-04-19T09:23:16.159Z,2.23
2023-04-19T09:28:27.430Z,2.30
2023-04-19T09:31:10.805Z,2.40
2023-04-19T09:33:45.206Z,2.53
2023-04-19T09:36:26.937Z,3.27
2023-04-19T09:38:53.958Z,2.50
2023-04-19T09:41:20.867Z,2.80
2023-04-19T09:46:34.796Z,2.67
2023-04-19T09:49:24.962Z,2.57
2023-04-19T09:51:56.201Z,2.50
2023-04-19T09:54:24.941Z,2.93
2023-04-19T09:56:54.744Z,3.10
2023-04-19T09:59:23.849Z,3.13
2023-04-19T10:01:59.454Z,2.63
2023-04-19T10:04:38.409Z,2.93
2023-04-19T10:09:59.921Z,2.63
2023-04-19T10:15:47.172Z,2.53
2023-04-19T10:18:25.131Z,3.00
2023-04-19T10:21:01.632Z,2.87
2023-04-19T10:23:29.500Z,2.80
2023-04-19T10:25:58.019Z,3.53
2023-04-19T10:28:27.905Z,2.80
2023-04-19T10:31:03.630Z,3.40
2023-04-19T10:33:40.041Z,2.80
2023-04-19T10:36:14.280Z,2.77
2023-04-19T10:38:49.400Z,2.90
2023-04-19T10:41:18.621Z,2.87
2023-04-19T10:44:10.576Z,3.07
2023-04-19T10:46:42.639Z,3.10
2023-04-19T10:49:10.356Z,2.87
2023-04-19T10:51:39.851Z,3.03
2023-04-19T10:54:08.546Z,3.47
2023-04-19T10:56:35.991Z,3.23
2023-04-19T10:59:02.875Z,2.73
2023-04-19T11:01:47.437Z,3.30
2023-04-19T11:04:22.344Z,3.30
2023-04-19T11:06:55.742Z,3.10
2023-04-19T11:09:34.674Z,2.90
2023-04-19T11:12:08.785Z,3.10
2023-04-19T11:14:57.696Z,3.30
2023-04-19T11:17:31.709Z,2.93
2023-04-19T11:20:00.775Z,3.40
2023-04-19T11:22:32.721Z,4.20
2023-04-19T11:25:12.642Z,3.47
2023-04-19T11:27:44.656Z,3.00
2023-04-19T11:30:22.238Z,3.60
2023-04-19T11:32:58.422Z,3.07
2023-04-19T11:35:29.056Z,2.93
2023-04-19T11:37:58.612Z,3.17
2023-04-19T11:40:26.805Z,3.27
2023-04-19T11:43:03.294Z,3.30
2023-04-19T11:45:36.515Z,2.70
2023-04-19T11:48:07.716Z,3.30
2023-04-19T11:50:45.084Z,3.17
2023-04-19T11:53:23.845Z,2.53
2023-04-19T11:55:53.539Z,3.17
2023-04-19T11:58:29.669Z,3.50
2023-04-19T12:01:02.734Z,3.00
2023-04-19T12:03:29.916Z,3.20
2023-04-19T12:05:58.942Z,3.83
2023-04-19T12:08:37.006Z,2.93
2023-04-19T12:11:04.987Z,3.90
2023-04-19T12:13:33.266Z,3.10
2023-04-19T12:16:01.790Z,3.33
2023-04-19T12:18:29.181Z,3.20
2023-04-19T12:20:56.252Z,3.27
2023-04-19T12:23:23.314Z,3.47
2023-04-19T12:25:50.603Z,3.50
2023-04-19T12:28:17.573Z,3.70
2023-04-19T12:30:44.993Z,3.23
2023-04-19T12:33:12.113Z,3.40
2023-04-19T12:35:39.261Z,3.57
2023-04-19T12:38:06.846Z,4.03
2023-04-19T12:40:34.101Z,4.23
2023-04-19T12:43:01.485Z,4.27
2023-04-19T12:45:28.932Z,3.67
2023-04-19T12:47:56.279Z,3.83
2023-04-19T12:50:23.470Z,3.97
2023-04-19T12:52:51.999Z,3.73
2023-04-19T12:55:19.807Z,3.93
2023-04-19T12:57:48.623Z,3.30
2023-04-19T13:00:16.212Z,4.07
2023-04-19T13:02:43.804Z,3.83
2023-04-19T13:05:12.928Z,4.07
2023-04-19T13:07:40.088Z,3.97
2023-04-19T13:10:07.749Z,3.87
2023-04-19T13:12:36.122Z,4.20
2023-04-19T13:15:04.829Z,4.37
2023-04-19T13:17:32.210Z,4.50
2023-04-19T13:19:59.145Z,4.17
2023-04-19T13:22:26.951Z,4.00
2023-04-19T13:24:54.018Z,3.83
2023-04-19T13:27:21.140Z,4.43
2023-04-19T13:29:48.063Z,4.17
2023-04-19T13:32:15.255Z,4.03
2023-04-19T13:34:42.749Z,4.17
2023-04-19T13:37:09.657Z,4.00
2023-04-19T13:39:37.563Z,4.10
2023-04-19T13:42:04.810Z,4.10
2023-04-19T13:44:32.232Z,4.03
2023-04-19T13:46:59.435Z,4.23
2023-04-19T13:49:26.680Z,4.10
2023-04-19T13:51:53.597Z,3.27
2023-04-19T13:54:23.629Z,3.90
2023-04-19T13:56:52.351Z,4.63
2023-04-19T13:59:19.719Z,3.97
2023-04-19T14:01:47.065Z,3.97
2023-04-19T14:04:14.139Z,4.33
2023-04-19T14:06:41.721Z,3.93
2023-04-19T14:09:08.829Z,4.57
2023-04-19T14:11:37.874Z,3.67
2023-04-19T14:14:05.124Z,4.10
2023-04-19T14:16:32.127Z,4.20
2023-04-19T14:18:59.842Z,4.10
2023-04-19T14:21:27.639Z,3.60
2023-04-19T14:23:55.051Z,4.17
2023-04-19T14:26:22.086Z,4.00
2023-04-19T14:28:49.603Z,3.93
2023-04-19T14:31:17.034Z,4.13
2023-04-19T14:33:43.967Z,3.70
2023-04-19T14:36:11.089Z,3.37
2023-04-19T14:38:38.555Z,4.87
2023-04-19T14:41:05.771Z,4.47
2023-04-19T14:43:33.193Z,3.80
2023-04-19T14:46:00.384Z,4.23
2023-04-19T14:48:27.445Z,3.67
2023-04-19T14:50:54.445Z,4.07
2023-04-19T14:53:21.982Z,3.67
2023-04-19T14:55:49.377Z,3.70
2023-04-19T14:58:16.755Z,3.70
2023-04-19T15:00:44.542Z,3.50
2023-04-19T15:03:11.526Z,3.53
2023-04-19T15:05:38.799Z,3.87
2023-04-19T15:08:06.278Z,4.00
2023-04-19T15:10:37.621Z,3.80
2023-04-19T15:13:05.828Z,3.50
2023-04-19T15:15:33.051Z,3.70
2023-04-19T15:18:00.298Z,3.50
2023-04-19T15:20:27.218Z,3.50
2023-04-19T15:22:54.142Z,3.50
2023-04-19T15:25:21.350Z,3.07
2023-04-19T15:27:48.397Z,3.50
2023-04-19T15:30:15.616Z,3.90
2023-04-19T15:32:44.558Z,3.90
2023-04-19T15:35:12.622Z,3.50
2023-04-19T15:37:41.108Z,3.03
2023-04-19T15:40:10.128Z,3.13
2023-04-19T15:42:37.201Z,2.80
2023-04-19T15:45:04.511Z,4.23
2023-04-19T15:47:31.726Z,2.83
2023-04-19T15:50:00.252Z,3.00
2023-04-19T15:52:27.278Z,2.70
2023-04-19T15:54:54.369Z,2.60
2023-04-19T15:57:21.359Z,2.83
2023-04-19T15:59:48.249Z,2.73
2023-04-19T16:02:15.473Z,2.93
2023-04-19T16:04:43.308Z,3.20
2023-04-19T16:07:10.344Z,2.80
2023-04-19T16:09:37.572Z,2.33
2023-04-19T16:12:04.446Z,2.80
2023-04-19T16:14:31.484Z,3.20
2023-04-19T16:17:01.209Z,2.90
2023-04-19T16:19:28.370Z,3.23
2023-04-19T16:21:55.380Z,2.80
2023-04-19T16:24:22.333Z,3.17
2023-04-19T16:26:49.748Z,2.70
2023-04-19T16:29:17.004Z,2.60
2023-04-19T16:31:44.390Z,2.80
2023-04-19T16:36:45.016Z,3.00
2023-04-19T16:39:12.394Z,2.63
2023-04-19T16:41:39.584Z,4.17
2023-04-19T16:44:06.441Z,3.20
2023-04-19T16:46:33.420Z,3.30
2023-04-19T16:49:01.069Z,3.20
2023-04-19T16:51:28.329Z,3.00
2023-04-19T16:53:56.401Z,2.60
2023-04-19T16:56:24.552Z,2.67
2023-04-19T16:58:51.838Z,2.50
2023-04-19T17:01:18.666Z,3.10
2023-04-19T17:03:49.244Z,3.10
2023-04-19T17:06:16.748Z,2.97
2023-04-19T17:08:43.710Z,3.00
2023-04-19T17:11:10.729Z,2.90
2023-04-19T17:13:38.108Z,3.40
2023-04-19T17:16:05.594Z,3.70
2023-04-19T17:18:32.531Z,3.00
2023-04-19T17:20:59.878Z,2.97
2023-04-19T17:23:26.893Z,2.90
2023-04-19T17:25:53.765Z,3.30
2023-04-19T17:28:20.689Z,3.13
2023-04-19T17:30:47.538Z,3.10
2023-04-19T17:33:14.704Z,3.73
2023-04-19T17:35:41.640Z,3.00
2023-04-19T17:38:08.471Z,3.40
2023-04-19T17:40:35.334Z,3.67
2023-04-19T17:43:02.246Z,3.53
2023-04-19T17:45:29.348Z,3.27
2023-04-19T17:47:56.400Z,3.47
2023-04-19T17:50:23.668Z,3.30
2023-04-19T17:52:50.550Z,3.80
2023-04-19T17:55:17.531Z,3.93
2023-04-19T17:57:46.136Z,3.70
2023-04-19T18:00:14.281Z,4.13
2023-04-19T18:02:41.525Z,3.90
2023-04-19T18:05:09.252Z,4.17
2023-04-19T18:07:39.342Z,3.40
2023-04-19T18:10:07.116Z,4.23
2023-04-19T18:12:34.387Z,4.00
2023-04-19T18:15:01.396Z,4.00
2023-04-19T18:17:28.471Z,3.87
2023-04-19T18:19:55.712Z,4.00
2023-04-19T18:22:22.669Z,4.73
2023-04-19T18:24:51.484Z,4.50
2023-04-19T18:27:18.328Z,4.57
2023-04-19T18:29:45.297Z,4.10
2023-04-19T18:32:12.272Z,4.53
2023-04-19T18:34:39.112Z,3.87
2023-04-19T18:37:17.590Z,3.93
2023-04-19T18:39:45.113Z,4.00
2023-04-19T18:42:12.488Z,5.17
2023-04-19T18:44:52.693Z,4.70
2023-04-19T18:47:21.802Z,5.30
2023-04-19T18:50:02.779Z,4.03
2023-04-19T18:52:32.086Z,4.30
2023-04-19T18:54:59.332Z,4.17
2023-04-19T18:57:27.436Z,4.70
2023-04-19T18:59:56.600Z,4.20
2023-04-19T19:02:23.728Z,3.97
2023-04-19T19:04:57.043Z,4.20
2023-04-19T19:09:56.668Z,4.20
2023-04-19T19:12:24.761Z,5.00
2023-04-19T19:14:52.467Z,4.50
2023-04-19T19:17:19.377Z,4.10
2023-04-19T19:19:46.307Z,5.10
2023-04-19T19:22:25.104Z,4.90
2023-04-19T19:24:55.140Z,5.40
2023-04-19T19:27:22.169Z,4.40
2023-04-19T19:29:48.993Z,5.17
2023-04-19T19:32:16.217Z,5.10
2023-04-19T19:34:53.748Z,5.03
2023-04-19T19:37:21.320Z,4.93
2023-04-19T19:39:48.354Z,4.33
2023-04-19T19:42:19.275Z,4.50
2023-04-19T19:44:46.212Z,4.70
2023-04-19T19:47:13.506Z,4.70
2023-04-19T19:50:04.707Z,4.80
2023-04-19T19:52:28.597Z,4.80
2023-04-19T19:54:55.659Z,4.13
2023-04-19T19:59:56.304Z,4.87
2023-04-19T20:02:25.028Z,5.00
2023-04-19T20:04:52.631Z,4.20
2023-04-19T20:09:52.439Z,4.63
2023-04-19T20:12:19.803Z,4.40
2023-04-19T20:14:46.702Z,4.67
2023-04-19T20:17:14.067Z,4.67
2023-04-19T20:19:42.676Z,4.60
2023-04-19T20:22:09.810Z,4.67
2023-04-19T20:24:38.031Z,4.90
2023-04-19T20:27:05.127Z,5.10
2023-04-19T20:29:32.170Z,5.90
2023-04-19T20:31:59.127Z,4.77
2023-04-19T20:34:27.411Z,5.07
2023-04-19T20:36:54.449Z,4.50
2023-04-19T20:39:21.473Z,4.97
2023-04-19T20:41:49.010Z,4.97
2023-04-19T20:44:18.018Z,4.50
2023-04-19T20:46:45.042Z,7.03
2023-04-19T20:49:12.238Z,4.87
2023-04-19T20:51:39.174Z,4.97
2023-04-19T20:54:06.462Z,5.43
2023-04-19T20:56:33.352Z,5.07
2023-04-19T20:59:00.634Z,4.87
2023-04-19T21:01:27.534Z,5.20
2023-04-19T21:03:54.853Z,5.60
2023-04-19T21:06:23.431Z,4.70
2023-04-19T21:08:50.528Z,4.77
2023-04-19T21:11:17.452Z,4.57
2023-04-19T21:13:44.351Z,4.70
2023-04-19T21:16:11.522Z,5.60
2023-04-19T21:18:38.636Z,4.10
2023-04-19T21:21:05.617Z,4.53
2023-04-19T21:23:32.593Z,5.53
2023-04-19T21:26:00.708Z,4.67
2023-04-19T21:28:28.188Z,4.90
2023-04-19T21:30:55.394Z,5.17
2023-04-19T21:33:22.296Z,4.90
2023-04-19T21:35:49.104Z,4.70
2023-04-19T21:38:16.057Z,4.47
2023-04-19T21:40:43.197Z,5.10
2023-04-19T21:43:10.171Z,4.63
2023-04-19T21:45:37.099Z,5.30
2023-04-19T21:48:04.143Z,5.10
2023-04-19T21:50:31.756Z,4.30
2023-04-19T21:52:58.677Z,5.00
2023-04-19T21:55:25.694Z,4.60
2023-04-19T21:57:52.644Z,5.30
2023-04-19T22:00:19.970Z,5.17
2023-04-19T22:02:47.045Z,5.93
2023-04-19T22:05:14.110Z,4.23
2023-04-19T22:07:41.101Z,5.13
2023-04-19T22:10:09.095Z,4.90
2023-04-19T22:12:42.554Z,5.00
2023-04-19T22:15:16.117Z,5.23
2023-04-19T22:17:44.686Z,4.60
2023-04-19T22:20:15.802Z,4.80
2023-04-19T22:22:42.642Z,5.30
2023-04-19T22:25:10.557Z,4.73
2023-04-19T22:27:37.804Z,5.00
2023-04-19T22:30:05.173Z,4.90
2023-04-19T22:32:32.131Z,4.60
2023-04-19T22:34:58.963Z,4.73
2023-04-19T22:37:25.951Z,5.23
2023-04-19T22:39:53.076Z,5.33
2023-04-19T22:42:19.972Z,4.70
2023-04-19T22:44:46.808Z,5.13
2023-04-19T22:47:14.534Z,5.77
2023-04-19T22:49:45.100Z,4.90
2023-04-19T22:52:12.282Z,5.30
2023-04-19T22:54:39.136Z,5.67
2023-04-19T22:57:06.001Z,5.10
2023-04-19T22:59:33.093Z,5.53
2023-04-19T23:01:59.987Z,5.27
2023-04-19T23:04:27.045Z,4.23
2023-04-19T23:06:54.020Z,4.67
2023-04-19T23:09:20.902Z,5.20
2023-04-19T23:11:48.821Z,5.03
2023-04-19T23:14:18.400Z,6.10
2023-04-19T23:16:46.177Z,5.50
2023-04-19T23:19:13.193Z,5.83
2023-04-19T23:21:40.431Z,4.83
2023-04-19T23:24:07.441Z,5.40
2023-04-19T23:26:34.291Z,5.60
2023-04-19T23:29:01.102Z,5.07
2023-04-19T23:31:28.017Z,5.33
2023-04-19T23:33:54.921Z,5.07
2023-04-19T23:36:22.291Z,5.83
2023-04-19T23:38:49.447Z,4.80
2023-04-19T23:41:16.342Z,5.73
2023-04-19T23:43:46.358Z,5.90
2023-04-19T23:46:13.433Z,5.37
2023-04-19T23:48:40.337Z,5.50
2023-04-19T23:51:07.202Z,5.90
2023-04-19T23:53:34.166Z,5.47
2023-04-19T23:56:00.988Z,6.63
2023-04-19T23:58:27.868Z,5.70
